sensor_id;sensor_type;location;lat;lon;timestamp;pressure;altitude;pressure_sealevel;temperature;humidity
8451;BME280;4262;50.980;13.892;2023-02-03T04:32:46;50429.16;;;-142.97;26.24
8451;BME280;4262;50.980;13.892;2023-02-03T04:35:13;50401.88;;;-142.97;25.93
8451;BME280;4262;50.980;13.892;2023-02-03T04:38:01;50380.44;;;-142.97;25.16
8451;BME280;4262;50.980;13.892;2023-02-03T04:40:27;50417.47;;;-142.97;25.24
8451;BME280;4262;50.980;13.892;2023-02-03T04:42:54;50413.56;;;-142.97;24.94
8451;BME280;4262;50.980;13.892;2023-02-03T04:45:20;50409.66;;;-142.97;25.31
8451;BME280;4262;50.980;13.892;2023-02-03T04:47:51;50425.28;;;-142.97;25.03
8451;BME280;4262;50.980;13.892;2023-02-03T04:50:18;50413.56;;;-142.97;25.27
8451;BME280;4262;50.980;13.892;2023-02-03T04:52:45;50399.91;;;-142.97;25.49
8451;BME280;4262;50.980;13.892;2023-02-03T04:55:12;50399.91;;;-142.97;28.19
8451;BME280;4262;50.980;13.892;2023-02-03T04:57:40;50440.88;;;-142.97;28.52
8451;BME280;4262;50.980;13.892;2023-02-03T05:00:08;50399.91;;;-142.97;28.84
8451;BME280;4262;50.980;13.892;2023-02-03T05:02:34;50396.03;;;-142.97;29.33
8451;BME280;4262;50.980;13.892;2023-02-03T05:05:03;50407.72;;;-142.97;29.40
8451;BME280;4262;50.980;13.892;2023-02-03T05:07:30;50425.28;;;-142.97;29.68
8451;BME280;4262;50.980;13.892;2023-02-03T05:09:58;50438.91;;;-142.97;29.82
8451;BME280;4262;50.980;13.892;2023-02-03T05:12:25;50411.63;;;-142.97;29.28
8451;BME280;4262;50.980;13.892;2023-02-03T05:14:52;50372.63;;;-142.97;30.57
8451;BME280;4262;50.980;13.892;2023-02-03T05:17:18;50421.38;;;-142.97;30.25
8451;BME280;4262;50.980;13.892;2023-02-03T05:19:47;50364.81;;;-142.97;30.65
8451;BME280;4262;50.980;13.892;2023-02-03T05:22:15;50411.63;;;-142.97;30.12
8451;BME280;4262;50.980;13.892;2023-02-03T05:24:42;50431.13;;;-142.97;30.57
8451;BME280;4262;50.980;13.892;2023-02-03T05:27:09;50431.13;;;-142.97;29.50
8451;BME280;4262;50.980;13.892;2023-02-03T05:29:36;50436.97;;;-142.97;30.66
8451;BME280;4262;50.980;13.892;2023-02-03T05:32:03;50407.72;;;-142.97;31.41
8451;BME280;4262;50.980;13.892;2023-02-03T05:34:30;50405.78;;;-142.97;30.88
8451;BME280;4262;50.980;13.892;2023-02-03T05:36:57;50405.78;;;-142.97;29.31
8451;BME280;4262;50.980;13.892;2023-02-03T05:39:26;50429.16;;;-142.97;30.16
8451;BME280;4262;50.980;13.892;2023-02-03T05:41:53;50435.03;;;-142.97;29.31
8451;BME280;4262;50.980;13.892;2023-02-03T05:44:19;50407.72;;;-142.97;29.87
8451;BME280;4262;50.980;13.892;2023-02-03T05:46:47;50411.63;;;-142.97;31.27
8451;BME280;4262;50.980;13.892;2023-02-03T05:49:15;50392.13;;;-142.97;29.79
8451;BME280;4262;50.980;13.892;2023-02-03T05:51:42;50433.06;;;-142.97;29.59
8451;BME280;4262;50.980;13.892;2023-02-03T05:54:09;50440.88;;;-142.97;29.77
8451;BME280;4262;50.980;13.892;2023-02-03T05:56:38;50405.78;;;-142.97;29.48
8451;BME280;4262;50.980;13.892;2023-02-03T05:59:18;50444.78;;;-142.97;30.62
8451;BME280;4262;50.980;13.892;2023-02-03T06:01:45;50421.38;;;-142.97;30.76
8451;BME280;4262;50.980;13.892;2023-02-03T06:04:12;50401.88;;;-142.97;28.96
8451;BME280;4262;50.980;13.892;2023-02-03T06:06:39;50353.13;;;-142.97;29.24
8451;BME280;4262;50.980;13.892;2023-02-03T06:09:07;50419.41;;;-142.97;29.55
8451;BME280;4262;50.980;13.892;2023-02-03T06:11:34;50392.13;;;-142.97;30.92
8451;BME280;4262;50.980;13.892;2023-02-03T06:14:03;50415.53;;;-142.97;30.84
8451;BME280;4262;50.980;13.892;2023-02-03T06:16:29;50401.88;;;-142.97;30.29
8451;BME280;4262;50.980;13.892;2023-02-03T06:18:56;50401.88;;;-142.97;30.51
8451;BME280;4262;50.980;13.892;2023-02-03T06:21:25;50431.13;;;-142.97;30.01
8451;BME280;4262;50.980;13.892;2023-02-03T06:23:52;50423.31;;;-142.97;31.05
8451;BME280;4262;50.980;13.892;2023-02-03T06:26:21;50392.13;;;-142.97;30.66
8451;BME280;4262;50.980;13.892;2023-02-03T06:28:47;50405.78;;;-142.97;30.95
8451;BME280;4262;50.980;13.892;2023-02-03T06:31:15;50392.13;;;-142.97;29.06
8451;BME280;4262;50.980;13.892;2023-02-03T06:33:42;50382.38;;;-142.97;29.10
8451;BME280;4262;50.980;13.892;2023-02-03T06:36:09;50413.56;;;-142.97;29.85
8451;BME280;4262;50.980;13.892;2023-02-03T06:38:37;50396.03;;;-142.97;29.99
8451;BME280;4262;50.980;13.892;2023-02-03T06:41:04;50425.28;;;-142.97;29.89
8451;BME280;4262;50.980;13.892;2023-02-03T06:43:30;50429.16;;;-142.97;28.57
8451;BME280;4262;50.980;13.892;2023-02-03T06:45:57;50413.56;;;-142.97;28.66
8451;BME280;4262;50.980;13.892;2023-02-03T06:48:27;50409.66;;;-142.97;29.61
8451;BME280;4262;50.980;13.892;2023-02-03T06:50:53;50396.03;;;-142.97;29.30
8451;BME280;4262;50.980;13.892;2023-02-03T06:53:20;50403.81;;;-142.97;28.51
8451;BME280;4262;50.980;13.892;2023-02-03T06:55:47;50384.31;;;-142.97;28.80
8451;BME280;4262;50.980;13.892;2023-02-03T06:58:14;50388.22;;;-142.97;29.52
8451;BME280;4262;50.980;13.892;2023-02-03T07:00:41;50415.53;;;-142.97;29.31
8451;BME280;4262;50.980;13.892;2023-02-03T07:03:09;50403.81;;;-142.97;28.37
8451;BME280;4262;50.980;13.892;2023-02-03T07:05:37;50403.81;;;-142.97;27.59
8451;BME280;4262;50.980;13.892;2023-02-03T07:08:05;50435.03;;;-142.97;30.06
8451;BME280;4262;50.980;13.892;2023-02-03T07:10:33;50401.88;;;-142.97;28.34
8451;BME280;4262;50.980;13.892;2023-02-03T07:13:03;50415.53;;;-142.97;28.35
8451;BME280;4262;50.980;13.892;2023-02-03T07:15:31;50397.97;;;-142.97;28.01
8451;BME280;4262;50.980;13.892;2023-02-03T07:17:57;50407.72;;;-142.97;28.68
8451;BME280;4262;50.980;13.892;2023-02-03T07:20:24;50392.13;;;-142.97;28.63
8451;BME280;4262;50.980;13.892;2023-02-03T07:22:55;50374.56;;;-142.97;28.03
8451;BME280;4262;50.980;13.892;2023-02-03T07:25:22;50423.31;;;-142.97;27.69
8451;BME280;4262;50.980;13.892;2023-02-03T07:27:50;50397.97;;;-142.97;28.19
8451;BME280;4262;50.980;13.892;2023-02-03T07:30:17;50423.31;;;-142.97;28.51
8451;BME280;4262;50.980;13.892;2023-02-03T07:32:47;50415.53;;;-142.97;26.46
8451;BME280;4262;50.980;13.892;2023-02-03T07:35:14;50425.28;;;-142.97;27.09
8451;BME280;4262;50.980;13.892;2023-02-03T07:37:41;50411.63;;;-142.97;28.08
8451;BME280;4262;50.980;13.892;2023-02-03T07:40:12;50388.22;;;-142.97;27.64
8451;BME280;4262;50.980;13.892;2023-02-03T07:42:41;50390.19;;;-142.97;27.57
8451;BME280;4262;50.980;13.892;2023-02-03T07:45:09;50390.19;;;-142.97;27.23
8451;BME280;4262;50.980;13.892;2023-02-03T07:47:36;50380.44;;;-142.97;27.79
8451;BME280;4262;50.980;13.892;2023-02-03T07:50:03;50401.88;;;-142.97;26.70
8451;BME280;4262;50.980;13.892;2023-02-03T07:52:30;50399.91;;;-142.97;27.40
8451;BME280;4262;50.980;13.892;2023-02-03T07:54:57;50396.03;;;-142.97;27.22
8451;BME280;4262;50.980;13.892;2023-02-03T07:57:25;50396.03;;;-142.97;27.56
8451;BME280;4262;50.980;13.892;2023-02-03T07:59:53;50394.06;;;-142.97;27.31
8451;BME280;4262;50.980;13.892;2023-02-03T08:02:20;50397.97;;;-142.97;28.26
8451;BME280;4262;50.980;13.892;2023-02-03T08:04:47;50419.41;;;-142.97;27.58
8451;BME280;4262;50.980;13.892;2023-02-03T08:07:13;50401.88;;;-142.97;29.12
8451;BME280;4262;50.980;13.892;2023-02-03T08:09:40;50397.97;;;-142.97;27.81
8451;BME280;4262;50.980;13.892;2023-02-03T08:12:07;50427.22;;;-142.97;27.48
8451;BME280;4262;50.980;13.892;2023-02-03T08:14:35;50399.91;;;-142.97;27.72
8451;BME280;4262;50.980;13.892;2023-02-03T08:17:01;50415.53;;;-142.97;28.49
8451;BME280;4262;50.980;13.892;2023-02-03T08:19:29;50357.03;;;-142.97;27.10
8451;BME280;4262;50.980;13.892;2023-02-03T08:21:56;50382.38;;;-142.97;25.69
8451;BME280;4262;50.980;13.892;2023-02-03T08:24:23;50374.56;;;-142.97;26.80
8451;BME280;4262;50.980;13.892;2023-02-03T08:26:50;50419.41;;;-142.97;26.94
8451;BME280;4262;50.980;13.892;2023-02-03T08:29:19;50409.66;;;-142.97;26.51
8451;BME280;4262;50.980;13.892;2023-02-03T08:31:47;50384.31;;;-142.97;26.67
8451;BME280;4262;50.980;13.892;2023-02-03T08:34:13;50411.63;;;-142.97;27.93
8451;BME280;4262;50.980;13.892;2023-02-03T08:36:40;50407.72;;;-142.97;26.56
8451;BME280;4262;50.980;13.892;2023-02-03T08:39:10;50397.97;;;-142.97;28.28
8451;BME280;4262;50.980;13.892;2023-02-03T08:41:37;50399.91;;;-142.97;27.35
8451;BME280;4262;50.980;13.892;2023-02-03T08:44:03;50427.22;;;-142.97;27.84
8451;BME280;4262;50.980;13.892;2023-02-03T08:46:30;50386.28;;;-142.97;27.39
8451;BME280;4262;50.980;13.892;2023-02-03T08:49:00;50436.97;;;-142.97;26.71
8451;BME280;4262;50.980;13.892;2023-02-03T08:51:28;50382.38;;;-142.97;27.31
8451;BME280;4262;50.980;13.892;2023-02-03T08:53:54;50390.19;;;-142.97;27.23
8451;BME280;4262;50.980;13.892;2023-02-03T08:56:21;50378.47;;;-142.97;27.21
8451;BME280;4262;50.980;13.892;2023-02-03T08:58:50;50405.78;;;-142.97;27.09
8451;BME280;4262;50.980;13.892;2023-02-03T09:01:17;50407.72;;;-142.97;27.41
8451;BME280;4262;50.980;13.892;2023-02-03T09:03:44;50401.88;;;-142.97;27.72
8451;BME280;4262;50.980;13.892;2023-02-03T09:06:12;50384.31;;;-142.97;27.57
8451;BME280;4262;50.980;13.892;2023-02-03T09:08:41;50386.28;;;-142.97;26.73
8451;BME280;4262;50.980;13.892;2023-02-03T09:11:08;50405.78;;;-142.97;27.18
8451;BME280;4262;50.980;13.892;2023-02-03T09:13:35;50382.38;;;-142.97;26.97
8451;BME280;4262;50.980;13.892;2023-02-03T09:16:04;50376.53;;;-142.97;27.26
8451;BME280;4262;50.980;13.892;2023-02-03T09:18:31;50401.88;;;-142.97;27.37
8451;BME280;4262;50.980;13.892;2023-02-03T09:21:03;50396.03;;;-142.97;27.16
8451;BME280;4262;50.980;13.892;2023-02-03T09:23:32;50396.03;;;-142.97;27.50
8451;BME280;4262;50.980;13.892;2023-02-03T09:26:01;50396.03;;;-142.97;26.83
8451;BME280;4262;50.980;13.892;2023-02-03T09:28:27;50399.91;;;-142.97;28.27
8451;BME280;4262;50.980;13.892;2023-02-03T09:30:58;50407.72;;;-142.97;28.21
8451;BME280;4262;50.980;13.892;2023-02-03T09:33:25;50411.63;;;-142.97;28.64
8451;BME280;4262;50.980;13.892;2023-02-03T09:35:52;50427.22;;;-142.97;28.78
8451;BME280;4262;50.980;13.892;2023-02-03T09:38:19;50386.28;;;-142.97;28.30
8451;BME280;4262;50.980;13.892;2023-02-03T09:40:51;50397.97;;;-142.97;27.64
8451;BME280;4262;50.980;13.892;2023-02-03T09:43:30;50396.03;;;-142.97;27.65
8451;BME280;4262;50.980;13.892;2023-02-03T09:46:02;50384.31;;;-142.97;28.46
8451;BME280;4262;50.980;13.892;2023-02-03T09:48:36;50380.44;;;-142.97;28.18
8451;BME280;4262;50.980;13.892;2023-02-03T09:51:07;50388.22;;;-142.97;28.15
8451;BME280;4262;50.980;13.892;2023-02-03T09:53:46;50386.28;;;-142.97;27.86
8451;BME280;4262;50.980;13.892;2023-02-03T09:56:24;50403.81;;;-142.97;29.48
8451;BME280;4262;50.980;13.892;2023-02-03T09:58:54;50397.97;;;-142.97;28.38
8451;BME280;4262;50.980;13.892;2023-02-03T10:01:23;50394.06;;;-142.97;27.81
8451;BME280;4262;50.980;13.892;2023-02-03T10:03:54;50386.28;;;-142.97;27.99
8451;BME280;4262;50.980;13.892;2023-02-03T10:06:30;50397.97;;;-142.97;28.08
8451;BME280;4262;50.980;13.892;2023-02-03T10:09:18;50401.88;;;-142.97;26.92
8451;BME280;4262;50.980;13.892;2023-02-03T10:12:05;50397.97;;;-142.97;27.47
8451;BME280;4262;50.980;13.892;2023-02-03T10:14:44;50374.56;;;-142.97;26.93
8451;BME280;4262;50.980;13.892;2023-02-03T10:17:24;50403.81;;;-142.97;28.49
8451;BME280;4262;50.980;13.892;2023-02-03T10:20:00;50413.56;;;-142.97;28.46
8451;BME280;4262;50.980;13.892;2023-02-03T10:22:30;50413.56;;;-142.97;27.75
8451;BME280;4262;50.980;13.892;2023-02-03T10:25:00;50366.78;;;-142.97;28.15
8451;BME280;4262;50.980;13.892;2023-02-03T10:27:32;50390.19;;;-142.97;28.05
8451;BME280;4262;50.980;13.892;2023-02-03T10:30:03;50396.03;;;-142.97;27.84
8451;BME280;4262;50.980;13.892;2023-02-03T10:32:32;50376.53;;;-142.97;27.74
8451;BME280;4262;50.980;13.892;2023-02-03T10:35:00;50382.38;;;-142.97;27.98
8451;BME280;4262;50.980;13.892;2023-02-03T10:37:29;50388.22;;;-142.97;27.26
8451;BME280;4262;50.980;13.892;2023-02-03T10:40:00;50384.31;;;-142.97;26.56
8451;BME280;4262;50.980;13.892;2023-02-03T10:42:29;50374.56;;;-142.97;28.09
8451;BME280;4262;50.980;13.892;2023-02-03T10:45:18;50376.53;;;-142.97;27.90
8451;BME280;4262;50.980;13.892;2023-02-03T10:47:47;50378.47;;;-142.97;27.25
8451;BME280;4262;50.980;13.892;2023-02-03T10:50:19;50384.31;;;-142.97;28.06
8451;BME280;4262;50.980;13.892;2023-02-03T10:52:46;50382.38;;;-142.97;27.93
8451;BME280;4262;50.980;13.892;2023-02-03T10:55:28;50370.69;;;-142.97;28.65
8451;BME280;4262;50.980;13.892;2023-02-03T10:57:56;50401.88;;;-142.97;26.97
8451;BME280;4262;50.980;13.892;2023-02-03T11:00:28;50384.31;;;-142.97;27.38
8451;BME280;4262;50.980;13.892;2023-02-03T11:02:58;50380.44;;;-142.97;27.33
8451;BME280;4262;50.980;13.892;2023-02-03T11:05:27;50370.69;;;-142.97;27.49
8451;BME280;4262;50.980;13.892;2023-02-03T11:07:54;50394.06;;;-142.97;27.92
8451;BME280;4262;50.980;13.892;2023-02-03T11:10:31;50407.72;;;-142.97;28.17
8451;BME280;4262;50.980;13.892;2023-02-03T11:13:17;50386.28;;;-142.97;28.61
8451;BME280;4262;50.980;13.892;2023-02-03T11:15:57;50390.19;;;-142.97;28.29
8451;BME280;4262;50.980;13.892;2023-02-03T11:18:46;50390.19;;;-142.97;28.27
8451;BME280;4262;50.980;13.892;2023-02-03T11:21:19;50376.53;;;-142.97;27.76
8451;BME280;4262;50.980;13.892;2023-02-03T11:23:49;50396.03;;;-142.97;29.60
8451;BME280;4262;50.980;13.892;2023-02-03T11:26:20;50409.66;;;-142.97;28.24
8451;BME280;4262;50.980;13.892;2023-02-03T11:28:50;50384.31;;;-142.97;28.50
8451;BME280;4262;50.980;13.892;2023-02-03T11:31:24;50396.03;;;-142.97;27.35
8451;BME280;4262;50.980;13.892;2023-02-03T11:33:55;50390.19;;;-142.97;29.07
8451;BME280;4262;50.980;13.892;2023-02-03T11:36:25;50362.88;;;-142.97;28.00
8451;BME280;4262;50.980;13.892;2023-02-03T11:39:18;50378.47;;;-142.97;28.24
8451;BME280;4262;50.980;13.892;2023-02-03T11:41:46;50370.69;;;-142.97;27.13
8451;BME280;4262;50.980;13.892;2023-02-03T11:44:20;50382.38;;;-142.97;27.17
8451;BME280;4262;50.980;13.892;2023-02-03T11:46:51;50380.44;;;-142.97;26.76
8451;BME280;4262;50.980;13.892;2023-02-03T11:49:45;50376.53;;;-142.97;27.01
8451;BME280;4262;50.980;13.892;2023-02-03T11:55:31;50415.53;;;-142.97;27.83
8451;BME280;4262;50.980;13.892;2023-02-03T11:58:15;50407.72;;;-142.97;27.76
8451;BME280;4262;50.980;13.892;2023-02-03T12:00:58;50376.53;;;-142.97;27.98
8451;BME280;4262;50.980;13.892;2023-02-03T12:06:43;50378.47;;;-142.97;28.52
8451;BME280;4262;50.980;13.892;2023-02-03T12:09:21;50380.44;;;-142.97;28.93
8451;BME280;4262;50.980;13.892;2023-02-03T12:12:38;50397.97;;;-142.97;29.27
8451;BME280;4262;50.980;13.892;2023-02-03T12:15:31;50403.81;;;-142.97;28.22
8451;BME280;4262;50.980;13.892;2023-02-03T12:18:15;50360.94;;;-142.97;29.00
8451;BME280;4262;50.980;13.892;2023-02-03T12:20:57;50384.31;;;-142.97;27.54
8451;BME280;4262;50.980;13.892;2023-02-03T12:23:34;50378.47;;;-142.97;27.86
8451;BME280;4262;50.980;13.892;2023-02-03T12:26:17;50392.13;;;-142.97;28.20
8451;BME280;4262;50.980;13.892;2023-02-03T12:28:52;50396.03;;;-142.97;27.04
8451;BME280;4262;50.980;13.892;2023-02-03T12:31:26;50384.31;;;-142.97;25.90
8451;BME280;4262;50.980;13.892;2023-02-03T12:34:01;50368.72;;;-142.97;27.23
8451;BME280;4262;50.980;13.892;2023-02-03T12:36:36;50396.03;;;-142.97;27.82
8451;BME280;4262;50.980;13.892;2023-02-03T12:39:06;50384.31;;;-142.97;27.74
8451;BME280;4262;50.980;13.892;2023-02-03T12:41:40;50405.78;;;-142.97;27.34
8451;BME280;4262;50.980;13.892;2023-02-03T12:44:15;50396.03;;;-142.97;26.86
8451;BME280;4262;50.980;13.892;2023-02-03T12:46:48;50366.78;;;-142.97;26.77
8451;BME280;4262;50.980;13.892;2023-02-03T12:49:26;50378.47;;;-142.97;27.60
8451;BME280;4262;50.980;13.892;2023-02-03T12:51:59;50357.03;;;-142.97;27.56
8451;BME280;4262;50.980;13.892;2023-02-03T12:54:33;50401.88;;;-142.97;28.11
8451;BME280;4262;50.980;13.892;2023-02-03T12:57:13;50392.13;;;-142.97;27.05
8451;BME280;4262;50.980;13.892;2023-02-03T12:59:43;50374.56;;;-142.97;26.73
8451;BME280;4262;50.980;13.892;2023-02-03T13:02:21;50357.03;;;-142.97;26.70
8451;BME280;4262;50.980;13.892;2023-02-03T13:04:53;50382.38;;;-142.97;26.77
8451;BME280;4262;50.980;13.892;2023-02-03T13:07:27;50386.28;;;-142.97;28.06
8451;BME280;4262;50.980;13.892;2023-02-03T13:10:02;50399.91;;;-142.97;28.02
8451;BME280;4262;50.980;13.892;2023-02-03T13:12:35;50358.97;;;-142.97;26.80
8451;BME280;4262;50.980;13.892;2023-02-03T13:15:18;50397.97;;;-142.97;27.15
8451;BME280;4262;50.980;13.892;2023-02-03T13:17:50;50401.88;;;-142.97;29.65
8451;BME280;4262;50.980;13.892;2023-02-03T13:20:23;50376.53;;;-142.97;28.46
8451;BME280;4262;50.980;13.892;2023-02-03T13:22:52;50386.28;;;-142.97;27.49
8451;BME280;4262;50.980;13.892;2023-02-03T13:25:23;50370.69;;;-142.97;26.63
8451;BME280;4262;50.980;13.892;2023-02-03T13:28:05;50368.72;;;-142.97;28.79
8451;BME280;4262;50.980;13.892;2023-02-03T13:30:55;50366.78;;;-142.97;27.38
8451;BME280;4262;50.980;13.892;2023-02-03T13:33:49;50382.38;;;-142.97;25.64
8451;BME280;4262;50.980;13.892;2023-02-03T13:36:49;50370.69;;;-142.97;26.14
8451;BME280;4262;50.980;13.892;2023-02-03T13:39:34;50364.81;;;-142.97;26.85
8451;BME280;4262;50.980;13.892;2023-02-03T13:42:18;50403.81;;;-142.97;28.36
8451;BME280;4262;50.980;13.892;2023-02-03T13:44:50;50366.78;;;-142.97;25.75
8451;BME280;4262;50.980;13.892;2023-02-03T13:47:21;50372.63;;;-142.97;25.90
8451;BME280;4262;50.980;13.892;2023-02-03T13:49:53;50384.31;;;-142.97;25.32
8451;BME280;4262;50.980;13.892;2023-02-03T13:52:35;50382.38;;;-142.97;24.46
8451;BME280;4262;50.980;13.892;2023-02-03T13:55:06;50368.72;;;-142.97;24.24
8451;BME280;4262;50.980;13.892;2023-02-03T13:57:36;50382.38;;;-142.97;24.09
8451;BME280;4262;50.980;13.892;2023-02-03T14:03:45;50374.56;;;-142.97;24.21
8451;BME280;4262;50.980;13.892;2023-02-03T14:09:44;50362.88;;;-142.97;25.41
8451;BME280;4262;50.980;13.892;2023-02-03T14:12:18;50362.88;;;-142.97;24.18
8451;BME280;4262;50.980;13.892;2023-02-03T14:14:57;50378.47;;;-142.97;25.52
8451;BME280;4262;50.980;13.892;2023-02-03T14:20:41;50355.09;;;-142.97;23.93
8451;BME280;4262;50.980;13.892;2023-02-03T14:23:17;50372.63;;;-142.97;23.87
8451;BME280;4262;50.980;13.892;2023-02-03T14:25:51;50399.91;;;-142.97;23.50
8451;BME280;4262;50.980;13.892;2023-02-03T14:28:26;50419.41;;;-142.97;24.36
8451;BME280;4262;50.980;13.892;2023-02-03T14:31:06;50362.88;;;-142.97;23.06
8451;BME280;4262;50.980;13.892;2023-02-03T14:33:55;50353.13;;;-142.97;23.89
8451;BME280;4262;50.980;13.892;2023-02-03T14:36:28;50374.56;;;-142.97;23.35
8451;BME280;4262;50.980;13.892;2023-02-03T14:38:58;50370.69;;;-142.97;22.77
8451;BME280;4262;50.980;13.892;2023-02-03T14:41:29;50405.78;;;-142.97;24.94
8451;BME280;4262;50.980;13.892;2023-02-03T14:44:04;50423.31;;;-142.97;24.67
8451;BME280;4262;50.980;13.892;2023-02-03T14:46:56;50397.97;;;-142.97;24.52
8451;BME280;4262;50.980;13.892;2023-02-03T14:49:34;50376.53;;;-142.97;23.59
8451;BME280;4262;50.980;13.892;2023-02-03T14:52:21;50372.63;;;-142.97;24.66
8451;BME280;4262;50.980;13.892;2023-02-03T14:55:08;50376.53;;;-142.97;24.36
8451;BME280;4262;50.980;13.892;2023-02-03T14:57:43;50372.63;;;-142.97;24.28
8451;BME280;4262;50.980;13.892;2023-02-03T15:00:32;50370.69;;;-142.97;24.03
8451;BME280;4262;50.980;13.892;2023-02-03T15:03:17;50386.28;;;-142.97;24.87
8451;BME280;4262;50.980;13.892;2023-02-03T15:05:48;50368.72;;;-142.97;24.12
8451;BME280;4262;50.980;13.892;2023-02-03T15:08:36;50358.97;;;-142.97;24.82
8451;BME280;4262;50.980;13.892;2023-02-03T15:11:24;50366.78;;;-142.97;24.05
8451;BME280;4262;50.980;13.892;2023-02-03T15:13:52;50370.69;;;-142.97;24.03
8451;BME280;4262;50.980;13.892;2023-02-03T15:16:22;50358.97;;;-142.97;23.54
8451;BME280;4262;50.980;13.892;2023-02-03T15:18:56;50353.13;;;-142.97;24.81
8451;BME280;4262;50.980;13.892;2023-02-03T15:21:25;50355.09;;;-142.97;23.56
8451;BME280;4262;50.980;13.892;2023-02-03T15:23:52;50382.38;;;-142.97;23.90
8451;BME280;4262;50.980;13.892;2023-02-03T15:26:21;50415.53;;;-142.97;23.63
8451;BME280;4262;50.980;13.892;2023-02-03T15:28:56;50357.03;;;-142.97;22.60
8451;BME280;4262;50.980;13.892;2023-02-03T15:31:30;50372.63;;;-142.97;22.61
8451;BME280;4262;50.980;13.892;2023-02-03T15:34:03;50349.22;;;-142.97;24.12
8451;BME280;4262;50.980;13.892;2023-02-03T15:36:38;50370.69;;;-142.97;24.00
8451;BME280;4262;50.980;13.892;2023-02-03T15:39:18;50364.81;;;-142.97;23.80
8451;BME280;4262;50.980;13.892;2023-02-03T15:41:49;50380.44;;;-142.97;24.04
8451;BME280;4262;50.980;13.892;2023-02-03T15:44:26;50355.09;;;-142.97;23.13
8451;BME280;4262;50.980;13.892;2023-02-03T15:46:58;50366.78;;;-142.97;23.42
8451;BME280;4262;50.980;13.892;2023-02-03T15:49:28;50353.13;;;-142.97;23.47
8451;BME280;4262;50.980;13.892;2023-02-03T15:52:00;50386.28;;;-142.97;23.61
8451;BME280;4262;50.980;13.892;2023-02-03T15:54:30;50351.19;;;-142.97;23.07
8451;BME280;4262;50.980;13.892;2023-02-03T15:57:07;50357.03;;;-142.97;22.47
8451;BME280;4262;50.980;13.892;2023-02-03T15:59:37;50388.22;;;-142.97;23.62
8451;BME280;4262;50.980;13.892;2023-02-03T16:02:13;50358.97;;;-142.97;22.93
8451;BME280;4262;50.980;13.892;2023-02-03T16:04:42;50366.78;;;-142.97;24.21
8451;BME280;4262;50.980;13.892;2023-02-03T16:07:15;50368.72;;;-142.97;23.80
8451;BME280;4262;50.980;13.892;2023-02-03T16:09:44;50362.88;;;-142.97;23.22
8451;BME280;4262;50.980;13.892;2023-02-03T16:12:15;50397.97;;;-142.97;24.42
8451;BME280;4262;50.980;13.892;2023-02-03T16:14:44;50376.53;;;-142.97;22.82
8451;BME280;4262;50.980;13.892;2023-02-03T16:17:23;50358.97;;;-142.97;23.54
8451;BME280;4262;50.980;13.892;2023-02-03T16:20:24;50364.81;;;-142.97;24.78
8451;BME280;4262;50.980;13.892;2023-02-03T16:23:04;50349.22;;;-142.97;22.70
8451;BME280;4262;50.980;13.892;2023-02-03T16:25:33;50360.94;;;-142.97;23.20
8451;BME280;4262;50.980;13.892;2023-02-03T16:28:01;50370.69;;;-142.97;25.18
8451;BME280;4262;50.980;13.892;2023-02-03T16:30:55;50372.63;;;-142.97;23.75
8451;BME280;4262;50.980;13.892;2023-02-03T16:33:44;50372.63;;;-142.97;24.52
8451;BME280;4262;50.980;13.892;2023-02-03T16:36:28;50384.31;;;-142.97;23.69
8451;BME280;4262;50.980;13.892;2023-02-03T16:39:13;50357.03;;;-142.97;23.05
8451;BME280;4262;50.980;13.892;2023-02-03T16:41:58;50378.47;;;-142.97;24.21
8451;BME280;4262;50.980;13.892;2023-02-03T16:44:44;50364.81;;;-142.97;24.79
8451;BME280;4262;50.980;13.892;2023-02-03T16:47:30;50374.56;;;-142.97;23.71
8451;BME280;4262;50.980;13.892;2023-02-03T16:50:20;50355.09;;;-142.97;24.79
8451;BME280;4262;50.980;13.892;2023-02-03T16:53:05;50386.28;;;-142.97;24.22
8451;BME280;4262;50.980;13.892;2023-02-03T16:55:32;50343.38;;;-142.97;24.20
8451;BME280;4262;50.980;13.892;2023-02-03T16:57:59;50380.44;;;-142.97;23.49
8451;BME280;4262;50.980;13.892;2023-02-03T17:00:25;50382.38;;;-142.97;24.74
8451;BME280;4262;50.980;13.892;2023-02-03T17:02:52;50372.63;;;-142.97;24.27
8451;BME280;4262;50.980;13.892;2023-02-03T17:05:20;50403.81;;;-142.97;25.34
8451;BME280;4262;50.980;13.892;2023-02-03T17:07:47;50357.03;;;-142.97;24.94
8451;BME280;4262;50.980;13.892;2023-02-03T17:10:36;50333.63;;;-142.97;24.61
8451;BME280;4262;50.980;13.892;2023-02-03T17:13:04;50390.19;;;-142.97;24.27
8451;BME280;4262;50.980;13.892;2023-02-03T17:15:38;50382.38;;;-142.97;25.29
8451;BME280;4262;50.980;13.892;2023-02-03T17:18:05;50360.94;;;-142.97;23.88
8451;BME280;4262;50.980;13.892;2023-02-03T17:20:33;50368.72;;;-142.97;24.72
8451;BME280;4262;50.980;13.892;2023-02-03T17:23:00;50360.94;;;-142.97;25.55
8451;BME280;4262;50.980;13.892;2023-02-03T17:25:27;50372.63;;;-142.97;23.53
8451;BME280;4262;50.980;13.892;2023-02-03T17:27:54;50364.81;;;-142.97;23.46
8451;BME280;4262;50.980;13.892;2023-02-03T17:30:20;50337.53;;;-142.97;23.28
8451;BME280;4262;50.980;13.892;2023-02-03T17:32:46;50366.78;;;-142.97;23.24
8451;BME280;4262;50.980;13.892;2023-02-03T17:35:13;50355.09;;;-142.97;22.53
8451;BME280;4262;50.980;13.892;2023-02-03T17:37:41;50353.13;;;-142.97;23.34
8451;BME280;4262;50.980;13.892;2023-02-03T17:40:08;50351.19;;;-142.97;23.49
8451;BME280;4262;50.980;13.892;2023-02-03T17:42:35;50329.72;;;-142.97;25.04
8451;BME280;4262;50.980;13.892;2023-02-03T17:45:02;50321.94;;;-142.97;23.39
8451;BME280;4262;50.980;13.892;2023-02-03T17:47:29;50353.13;;;-142.97;22.75
8451;BME280;4262;50.980;13.892;2023-02-03T17:49:55;50366.78;;;-142.97;24.05
8451;BME280;4262;50.980;13.892;2023-02-03T17:52:22;50368.72;;;-142.97;23.88
8451;BME280;4262;50.980;13.892;2023-02-03T17:54:50;50362.88;;;-142.97;22.98
8451;BME280;4262;50.980;13.892;2023-02-03T17:57:17;50341.44;;;-142.97;23.62
8451;BME280;4262;50.980;13.892;2023-02-03T17:59:45;50347.28;;;-142.97;23.88
8451;BME280;4262;50.980;13.892;2023-02-03T18:02:12;50329.72;;;-142.97;23.55
8451;BME280;4262;50.980;13.892;2023-02-03T18:04:38;50380.44;;;-142.97;24.79